Time;durP1;ratioP1;P1;durP2;ratioP2;P2;SDS_P1;SDS_P2;PMS_P1;PMS_P2;Temp;Humidity;BMP_temperature;BMP_pressure;BME280_temperature;BME280_humidity;BME280_pressure;Samples;Min_cycle;Max_cycle;Signal;HPM_P1;HPM_P2
2021/11/24 00:00:32;;;;;;;0.20;0.20;;;;;;;;;;4976624;28;20491;-83
2021/11/24 00:02:58;;;;;;;0.00;0.00;;;;;;;;;;4976571;28;20026;-83
2021/11/24 00:05:23;;;;;;;0.63;0.63;;;;;;;;;;4976700;28;20039;-83
2021/11/24 00:07:49;;;;;;;0.10;0.10;;;;;;;;;;4976443;28;20035;-83
2021/11/24 00:10:15;;;;;;;0.38;0.38;;;;;;;;;;4976880;28;20019;-83
2021/11/24 00:12:40;;;;;;;0.20;0.20;;;;;;;;;;4976474;28;20037;-83
2021/11/24 00:15:06;;;;;;;0.10;0.10;;;;;;;;;;4976111;28;20121;-82
2021/11/24 00:17:32;;;;;;;0.63;0.63;;;;;;;;;;4976254;28;20019;-82
2021/11/24 00:19:58;;;;;;;0.60;0.60;;;;;;;;;;4976111;28;20042;-82
2021/11/24 00:22:23;;;;;;;0.15;0.15;;;;;;;;;;4976396;28;20352;-82
2021/11/24 00:24:48;;;;;;;0.10;0.10;;;;;;;;;;4975821;28;20435;-82
2021/11/24 00:27:14;;;;;;;0.08;0.08;;;;;;;;;;4976243;28;20031;-82
2021/11/24 00:29:39;;;;;;;0.20;0.20;;;;;;;;;;4976000;28;20027;-82
2021/11/24 00:32:05;;;;;;;0.10;0.10;;;;;;;;;;4976159;28;20018;-82
2021/11/24 00:34:30;;;;;;;0.10;0.10;;;;;;;;;;4975944;28;20026;-82
2021/11/24 00:36:55;;;;;;;0.10;0.10;;;;;;;;;;4975742;28;20041;-82
2021/11/24 00:39:21;;;;;;;0.10;0.10;;;;;;;;;;4975916;28;20101;-82
2021/11/24 00:41:46;;;;;;;0.45;0.45;;;;;;;;;;4975638;28;20039;-82
2021/11/24 00:44:11;;;;;;;0.10;0.10;;;;;;;;;;4974991;28;20062;-82
2021/11/24 00:46:37;;;;;;;0.10;0.10;;;;;;;;;;4958533;28;20491;-83
2021/11/24 00:49:03;;;;;;;0.00;0.00;;;;;;;;;;4975762;28;20035;-83
2021/11/24 00:51:28;;;;;;;0.10;0.10;;;;;;;;;;4975557;28;20027;-82
2021/11/24 00:53:53;;;;;;;0.20;0.20;;;;;;;;;;4975621;28;20025;-83
2021/11/24 00:56:19;;;;;;;0.10;0.10;;;;;;;;;;4975410;28;20038;-83
2021/11/24 00:58:44;;;;;;;0.00;0.00;;;;;;;;;;4975501;28;20062;-83
2021/11/24 01:01:10;;;;;;;0.10;0.10;;;;;;;;;;4975485;28;20034;-83
2021/11/24 01:03:35;;;;;;;0.28;0.28;;;;;;;;;;4975507;28;20039;-82
2021/11/24 01:06:00;;;;;;;0.10;0.10;;;;;;;;;;4975561;28;20073;-82
2021/11/24 01:08:26;;;;;;;0.00;0.00;;;;;;;;;;4975314;28;20080;-83
2021/11/24 01:10:51;;;;;;;0.22;0.22;;;;;;;;;;4975403;28;20097;-83
2021/11/24 01:13:18;;;;;;;0.52;0.52;;;;;;;;;;4975312;28;20031;-83
2021/11/24 01:15:45;;;;;;;0.20;0.20;;;;;;;;;;4975317;28;20023;-83
2021/11/24 01:18:10;;;;;;;0.10;0.10;;;;;;;;;;4971233;28;20118;-82
2021/11/24 01:20:35;;;;;;;0.05;0.05;;;;;;;;;;4974498;28;20554;-83
2021/11/24 01:23:01;;;;;;;0.00;0.00;;;;;;;;;;4974845;28;20487;-82
2021/11/24 01:25:26;;;;;;;0.10;0.10;;;;;;;;;;4974959;28;20085;-83
2021/11/24 01:27:52;;;;;;;0.10;0.10;;;;;;;;;;4974958;28;20069;-83
2021/11/24 01:30:18;;;;;;;0.00;0.00;;;;;;;;;;4965006;28;20055;-83
2021/11/24 01:32:43;;;;;;;0.00;0.00;;;;;;;;;;4955738;28;20042;-83
2021/11/24 01:35:09;;;;;;;0.20;0.20;;;;;;;;;;4955662;28;20028;-82
2021/11/24 01:37:34;;;;;;;0.10;0.10;;;;;;;;;;4955608;28;20030;-82
2021/11/24 01:40:00;;;;;;;0.10;0.10;;;;;;;;;;4955525;28;20053;-82
2021/11/24 01:42:28;;;;;;;0.10;0.10;;;;;;;;;;4955595;28;20460;-82
2021/11/24 01:44:54;;;;;;;0.10;0.10;;;;;;;;;;4955438;28;20066;-82
2021/11/24 01:47:19;;;;;;;0.00;0.00;;;;;;;;;;4955348;28;20059;-82
2021/11/24 01:49:44;;;;;;;0.20;0.20;;;;;;;;;;4955361;28;20090;-82
2021/11/24 01:52:10;;;;;;;0.20;0.20;;;;;;;;;;4955254;28;20015;-82
2021/11/24 01:54:36;;;;;;;0.10;0.10;;;;;;;;;;4954933;28;20032;-82
2021/11/24 01:57:01;;;;;;;0.10;0.10;;;;;;;;;;4955440;28;20042;-82
2021/11/24 01:59:27;;;;;;;0.10;0.10;;;;;;;;;;4955278;28;20375;-82
2021/11/24 02:01:52;;;;;;;0.10;0.10;;;;;;;;;;4955190;28;20097;-81
2021/11/24 02:04:18;;;;;;;0.00;0.00;;;;;;;;;;4954971;28;20031;-82
2021/11/24 02:06:43;;;;;;;0.00;0.00;;;;;;;;;;4955350;28;20030;-83
2021/11/24 02:09:09;;;;;;;0.00;0.00;;;;;;;;;;4955139;28;20035;-82
2021/11/24 02:11:39;;;;;;;0.10;0.10;;;;;;;;;;4955233;28;20031;-83
2021/11/24 02:14:05;;;;;;;0.45;0.45;;;;;;;;;;4955114;28;20023;-83
2021/11/24 02:16:30;;;;;;;0.20;0.20;;;;;;;;;;4954906;28;20402;-83
2021/11/24 02:18:56;;;;;;;0.10;0.10;;;;;;;;;;4954695;28;20036;-83
2021/11/24 02:21:21;;;;;;;0.10;0.10;;;;;;;;;;4954821;28;20028;-83
2021/11/24 02:23:47;;;;;;;0.10;0.10;;;;;;;;;;4973249;28;20077;-83
2021/11/24 02:26:12;;;;;;;0.13;0.13;;;;;;;;;;4974291;28;20023;-83
2021/11/24 02:28:38;;;;;;;0.25;0.22;;;;;;;;;;4956882;28;20027;-83
2021/11/24 02:31:04;;;;;;;0.10;0.10;;;;;;;;;;4974231;28;20479;-83
2021/11/24 02:33:29;;;;;;;0.00;0.00;;;;;;;;;;4973869;28;20390;-82
2021/11/24 02:35:54;;;;;;;0.20;0.20;;;;;;;;;;4974106;28;20022;-83
2021/11/24 02:38:19;;;;;;;0.15;0.15;;;;;;;;;;4973845;28;20042;-83
2021/11/24 02:40:45;;;;;;;0.10;0.10;;;;;;;;;;4973902;28;20420;-83
2021/11/24 02:43:10;;;;;;;0.08;0.08;;;;;;;;;;4956768;28;20105;-82
2021/11/24 02:45:36;;;;;;;0.00;0.00;;;;;;;;;;4973974;28;20511;-83
2021/11/24 02:48:02;;;;;;;0.00;0.00;;;;;;;;;;4974140;28;20035;-83
2021/11/24 02:50:27;;;;;;;0.10;0.10;;;;;;;;;;4974011;28;20027;-83
2021/11/24 02:52:53;;;;;;;0.10;0.10;;;;;;;;;;4973788;28;20091;-82
2021/11/24 02:55:18;;;;;;;0.00;0.00;;;;;;;;;;4974028;28;20035;-83
2021/11/24 02:57:45;;;;;;;0.28;0.28;;;;;;;;;;4974038;28;20019;-82
2021/11/24 03:00:11;;;;;;;0.00;0.00;;;;;;;;;;4973426;28;20471;-82
2021/11/24 03:02:36;;;;;;;0.10;0.10;;;;;;;;;;4973846;28;20046;-82
2021/11/24 03:05:02;;;;;;;0.88;0.65;;;;;;;;;;4973609;28;20421;-82
2021/11/24 03:07:27;;;;;;;0.00;0.00;;;;;;;;;;4976975;28;20118;-82
2021/11/24 03:09:52;;;;;;;0.00;0.00;;;;;;;;;;4977181;28;20037;-82
2021/11/24 03:12:18;;;;;;;0.17;0.17;;;;;;;;;;4977990;28;20019;-82
2021/11/24 03:14:43;;;;;;;0.03;0.03;;;;;;;;;;4960158;28;20558;-82
2021/11/24 03:17:08;;;;;;;0.00;0.00;;;;;;;;;;4977253;28;20031;-82
2021/11/24 03:19:34;;;;;;;0.15;0.15;;;;;;;;;;4977148;28;20026;-82
2021/11/24 03:21:59;;;;;;;0.00;0.00;;;;;;;;;;4977273;28;20051;-82
2021/11/24 03:24:24;;;;;;;0.05;0.05;;;;;;;;;;4977305;28;20375;-83
2021/11/24 03:26:50;;;;;;;0.25;0.25;;;;;;;;;;4977261;28;20015;-82
2021/11/24 03:29:15;;;;;;;0.10;0.10;;;;;;;;;;4976822;28;20039;-83
2021/11/24 03:31:40;;;;;;;0.17;0.17;;;;;;;;;;4977266;28;20046;-83
2021/11/24 03:34:06;;;;;;;0.10;0.10;;;;;;;;;;4977107;28;20092;-82
2021/11/24 03:36:32;;;;;;;0.13;0.13;;;;;;;;;;4977163;28;20120;-82
2021/11/24 03:38:57;;;;;;;0.10;0.10;;;;;;;;;;4977002;28;20035;-83
2021/11/24 03:41:22;;;;;;;0.10;0.10;;;;;;;;;;4977087;28;20050;-82
2021/11/24 03:43:48;;;;;;;0.10;0.10;;;;;;;;;;4976936;28;20037;-82
2021/11/24 03:46:13;;;;;;;0.47;0.47;;;;;;;;;;4976961;28;20026;-82
2021/11/24 03:48:38;;;;;;;0.10;0.10;;;;;;;;;;4976819;28;20023;-82
2021/11/24 03:51:04;;;;;;;0.00;0.00;;;;;;;;;;4976884;28;20078;-82
2021/11/24 03:53:29;;;;;;;0.20;0.20;;;;;;;;;;4976798;28;20463;-82
2021/11/24 03:55:54;;;;;;;0.10;0.10;;;;;;;;;;4976750;28;20077;-82
2021/11/24 03:58:20;;;;;;;0.10;0.10;;;;;;;;;;4976740;28;20094;-82
2021/11/24 04:00:45;;;;;;;0.10;0.10;;;;;;;;;;4976517;28;20049;-83
2021/11/24 04:03:10;;;;;;;0.40;0.30;;;;;;;;;;4976505;28;20015;-82
2021/11/24 04:05:36;;;;;;;0.00;0.00;;;;;;;;;;4976489;28;20073;-82
2021/11/24 04:08:01;;;;;;;0.50;0.50;;;;;;;;;;4976288;28;20400;-82
2021/11/24 04:10:27;;;;;;;0.00;0.00;;;;;;;;;;4959097;28;20031;-82
2021/11/24 04:12:52;;;;;;;0.10;0.10;;;;;;;;;;4976471;28;20463;-82
2021/11/24 04:15:18;;;;;;;0.08;0.08;;;;;;;;;;4976675;28;20031;-82
2021/11/24 04:17:44;;;;;;;0.10;0.10;;;;;;;;;;4975273;28;20073;-82
2021/11/24 04:20:11;;;;;;;0.10;0.10;;;;;;;;;;4976277;28;20511;-82
2021/11/24 04:22:36;;;;;;;0.10;0.10;;;;;;;;;;4976188;28;20050;-82
2021/11/24 04:25:02;;;;;;;0.08;0.08;;;;;;;;;;4976259;28;20422;-82
2021/11/24 04:27:28;;;;;;;0.13;0.13;;;;;;;;;;4975872;28;20525;-82
2021/11/24 04:29:53;;;;;;;0.65;0.65;;;;;;;;;;4975981;28;20022;-82
2021/11/24 04:32:19;;;;;;;0.45;0.45;;;;;;;;;;4976242;28;20107;-82
2021/11/24 04:34:45;;;;;;;0.10;0.10;;;;;;;;;;4975970;28;20035;-83
2021/11/24 04:37:10;;;;;;;0.20;0.20;;;;;;;;;;4976137;28;20149;-82
2021/11/24 04:39:35;;;;;;;0.10;0.10;;;;;;;;;;4975545;28;20486;-82
2021/11/24 04:42:00;;;;;;;1.27;1.00;;;;;;;;;;4975896;28;20085;-82
2021/11/24 04:44:26;;;;;;;0.00;0.00;;;;;;;;;;4975837;28;20077;-82
2021/11/24 04:46:51;;;;;;;0.00;0.00;;;;;;;;;;4975616;28;20035;-83
2021/11/24 04:49:17;;;;;;;0.70;0.70;;;;;;;;;;4975723;28;20074;-83
2021/11/24 04:51:42;;;;;;;0.10;0.10;;;;;;;;;;4975779;28;20399;-82
2021/11/24 04:54:08;;;;;;;0.00;0.00;;;;;;;;;;4975562;28;20025;-82
2021/11/24 04:56:33;;;;;;;0.10;0.10;;;;;;;;;;4975370;28;20026;-82
2021/11/24 04:59:00;;;;;;;0.00;0.00;;;;;;;;;;4975581;28;20040;-82
2021/11/24 05:01:26;;;;;;;0.10;0.10;;;;;;;;;;4975491;28;20031;-83
2021/11/24 05:03:51;;;;;;;0.20;0.20;;;;;;;;;;4975427;28;20113;-82
2021/11/24 05:06:18;;;;;;;0.00;0.00;;;;;;;;;;4975626;28;20046;-83
2021/11/24 05:08:44;;;;;;;0.00;0.00;;;;;;;;;;4975250;28;20015;-82
2021/11/24 05:11:10;;;;;;;0.10;0.10;;;;;;;;;;4975113;28;20502;-83
2021/11/24 05:13:36;;;;;;;0.10;0.10;;;;;;;;;;4975285;28;20041;-83
2021/11/24 05:16:04;;;;;;;0.00;0.00;;;;;;;;;;4975143;28;20477;-82
2021/11/24 05:18:42;;;;;;;0.20;0.20;;;;;;;;;;4975208;28;20097;-82
2021/11/24 05:21:54;;;;;;;3.05;1.80;;;;;;;;;;4975161;28;20134;-82
2021/11/24 05:23:53;;;;;;;0.15;0.15;;;;;;;;;;4957906;28;20491;-82
2021/11/24 05:26:18;;;;;;;0.10;0.10;;;;;;;;;;4975225;28;20031;-82
2021/11/24 05:28:43;;;;;;;0.17;0.17;;;;;;;;;;4974351;28;20113;-83
2021/11/24 05:31:09;;;;;;;0.20;0.20;;;;;;;;;;4975081;28;20091;-83
2021/11/24 05:33:36;;;;;;;0.03;0.03;;;;;;;;;;4974609;28;20463;-83
2021/11/24 05:36:01;;;;;;;0.08;0.08;;;;;;;;;;4974715;28;20439;-83
2021/11/24 05:38:26;;;;;;;0.10;0.10;;;;;;;;;;4974941;28;20027;-83
2021/11/24 05:40:52;;;;;;;0.00;0.00;;;;;;;;;;4974456;28;20398;-83
2021/11/24 05:43:21;;;;;;;0.00;0.00;;;;;;;;;;4975031;28;20478;-83
2021/11/24 05:48:19;;;;;;;0.10;0.10;;;;;;;;;;4974910;28;20042;-82
2021/11/24 05:50:44;;;;;;;0.10;0.10;;;;;;;;;;4974839;28;20038;-82
2021/11/24 05:53:10;;;;;;;0.15;0.15;;;;;;;;;;4975082;28;20027;-82
2021/11/24 05:55:36;;;;;;;0.00;0.00;;;;;;;;;;4974652;28;20022;-83
2021/11/24 05:58:01;;;;;;;0.10;0.10;;;;;;;;;;4974622;28;20027;-82
2021/11/24 06:00:26;;;;;;;0.10;0.10;;;;;;;;;;4974165;28;20031;-82
2021/11/24 06:02:52;;;;;;;0.55;0.55;;;;;;;;;;4974550;28;20034;-82
2021/11/24 06:05:17;;;;;;;0.00;0.00;;;;;;;;;;4974326;28;20529;-83
2021/11/24 06:07:42;;;;;;;0.22;0.22;;;;;;;;;;4974501;28;20019;-82
2021/11/24 06:10:09;;;;;;;0.10;0.10;;;;;;;;;;4974413;28;20045;-82
2021/11/24 06:12:35;;;;;;;0.10;0.10;;;;;;;;;;4974420;28;20073;-82
2021/11/24 06:15:00;;;;;;;0.57;0.57;;;;;;;;;;4974317;28;20042;-82
2021/11/24 06:17:26;;;;;;;0.20;0.20;;;;;;;;;;4974484;28;20027;-82
2021/11/24 06:19:51;;;;;;;0.00;0.00;;;;;;;;;;4974511;28;20085;-82
2021/11/24 06:22:17;;;;;;;0.10;0.10;;;;;;;;;;4974329;28;20503;-82
2021/11/24 06:24:42;;;;;;;0.00;0.00;;;;;;;;;;4974240;28;20027;-82
2021/11/24 06:27:08;;;;;;;0.10;0.10;;;;;;;;;;4974391;28;20035;-82
2021/11/24 06:29:33;;;;;;;0.10;0.10;;;;;;;;;;4974103;28;20085;-82
2021/11/24 06:31:59;;;;;;;0.10;0.10;;;;;;;;;;4974397;28;20036;-82
2021/11/24 06:34:24;;;;;;;0.10;0.10;;;;;;;;;;4974144;28;20038;-82
2021/11/24 06:36:53;;;;;;;0.00;0.00;;;;;;;;;;4974298;28;20451;-82
2021/11/24 06:39:18;;;;;;;0.08;0.08;;;;;;;;;;4974227;28;20031;-81
2021/11/24 06:41:43;;;;;;;0.10;0.10;;;;;;;;;;4958701;28;20108;-81
2021/11/24 06:44:09;;;;;;;0.10;0.10;;;;;;;;;;4978168;28;20463;-81
2021/11/24 06:46:35;;;;;;;0.00;0.00;;;;;;;;;;4978059;28;20023;-82
2021/11/24 06:49:00;;;;;;;0.05;0.05;;;;;;;;;;4978023;28;20117;-81
2021/11/24 06:51:26;;;;;;;0.00;0.00;;;;;;;;;;4977988;28;20098;-82
2021/11/24 06:53:51;;;;;;;0.00;0.00;;;;;;;;;;4977914;28;20054;-82
2021/11/24 06:56:16;;;;;;;0.03;0.03;;;;;;;;;;4977731;28;20089;-82
2021/11/24 06:58:42;;;;;;;0.20;0.20;;;;;;;;;;4960342;28;20077;-83
2021/11/24 07:01:08;;;;;;;0.00;0.00;;;;;;;;;;4977711;28;20047;-83
2021/11/24 07:03:33;;;;;;;0.10;0.10;;;;;;;;;;4978111;28;20479;-82
2021/11/24 07:05:58;;;;;;;0.10;0.10;;;;;;;;;;4977557;28;20023;-82
2021/11/24 07:08:23;;;;;;;0.10;0.10;;;;;;;;;;4977782;28;20082;-83
2021/11/24 07:10:49;;;;;;;0.10;0.10;;;;;;;;;;4977516;28;20471;-83
2021/11/24 07:13:14;;;;;;;0.10;0.10;;;;;;;;;;4977961;28;20360;-83
2021/11/24 07:15:40;;;;;;;0.00;0.00;;;;;;;;;;4977431;28;20042;-82
2021/11/24 07:18:05;;;;;;;0.10;0.10;;;;;;;;;;4977664;28;20481;-83
2021/11/24 07:20:30;;;;;;;0.10;0.10;;;;;;;;;;4977271;28;20030;-83
2021/11/24 07:22:56;;;;;;;0.00;0.00;;;;;;;;;;4977546;28;20057;-83
2021/11/24 07:25:22;;;;;;;0.17;0.17;;;;;;;;;;4977425;28;20026;-82
2021/11/24 07:27:47;;;;;;;0.10;0.10;;;;;;;;;;4977217;28;20019;-84
2021/11/24 07:30:13;;;;;;;0.35;0.35;;;;;;;;;;4977269;28;20039;-83
2021/11/24 07:32:38;;;;;;;0.00;0.00;;;;;;;;;;4977322;28;20455;-83
2021/11/24 07:35:05;;;;;;;0.20;0.20;;;;;;;;;;4977175;28;20478;-83
2021/11/24 07:37:30;;;;;;;0.25;0.25;;;;;;;;;;4977476;28;20038;-83
2021/11/24 07:39:55;;;;;;;0.00;0.00;;;;;;;;;;4977283;28;20039;-83
2021/11/24 07:42:21;;;;;;;0.08;0.08;;;;;;;;;;4977149;28;20026;-83
2021/11/24 07:44:47;;;;;;;0.25;0.25;;;;;;;;;;4976847;28;20049;-83
2021/11/24 07:47:12;;;;;;;0.10;0.10;;;;;;;;;;4976805;28;20478;-83
2021/11/24 07:49:38;;;;;;;0.10;0.10;;;;;;;;;;4976916;28;20126;-83
2021/11/24 07:52:04;;;;;;;0.10;0.10;;;;;;;;;;4976731;28;20448;-83
2021/11/24 07:54:29;;;;;;;0.10;0.10;;;;;;;;;;4976808;28;20058;-83
2021/11/24 07:56:54;;;;;;;0.00;0.00;;;;;;;;;;4976955;28;20029;-83
2021/11/24 07:59:20;;;;;;;0.10;0.10;;;;;;;;;;4976389;28;20471;-83
2021/11/24 08:01:45;;;;;;;0.10;0.10;;;;;;;;;;4976915;28;20043;-82
2021/11/24 08:04:10;;;;;;;0.80;0.80;;;;;;;;;;4976723;28;20023;-83
2021/11/24 08:06:36;;;;;;;0.17;0.17;;;;;;;;;;4976849;28;20027;-81
2021/11/24 08:09:01;;;;;;;0.00;0.00;;;;;;;;;;4977253;28;20387;-91
2021/11/24 08:11:26;;;;;;;0.10;0.10;;;;;;;;;;4976797;28;20061;-86
2021/11/24 08:13:52;;;;;;;0.00;0.00;;;;;;;;;;4959088;28;20039;-88
2021/11/24 08:16:17;;;;;;;0.30;0.15;;;;;;;;;;4973530;28;20509;-88
2021/11/24 08:18:43;;;;;;;0.00;0.00;;;;;;;;;;4992864;28;20502;-84
2021/11/24 08:21:08;;;;;;;0.20;0.20;;;;;;;;;;4995452;28;20046;-86
2021/11/24 08:23:33;;;;;;;0.32;0.20;;;;;;;;;;4995925;28;20054;-88
2021/11/24 08:25:59;;;;;;;0.20;0.20;;;;;;;;;;4995593;28;20433;-88
2021/11/24 08:28:25;;;;;;;0.10;0.10;;;;;;;;;;4978530;28;20435;-88
2021/11/24 08:30:50;;;;;;;0.30;0.30;;;;;;;;;;4966980;28;20066;-88
2021/11/24 08:33:16;;;;;;;0.10;0.10;;;;;;;;;;4956840;28;20030;-87
2021/11/24 08:35:41;;;;;;;0.10;0.10;;;;;;;;;;4956620;28;20023;-85
2021/11/24 08:38:08;;;;;;;0.10;0.10;;;;;;;;;;4956860;29;20111;-88
2021/11/24 08:40:33;;;;;;;0.00;0.00;;;;;;;;;;4956524;28;20078;-87
2021/11/24 08:42:59;;;;;;;0.10;0.10;;;;;;;;;;4956429;28;20031;-88
2021/11/24 08:45:24;;;;;;;0.10;0.10;;;;;;;;;;4954801;29;20107;-89
2021/11/24 08:47:50;;;;;;;0.10;0.10;;;;;;;;;;4956362;28;20028;-91
2021/11/24 08:50:16;;;;;;;0.38;0.38;;;;;;;;;;4956435;28;20539;-88
2021/11/24 08:52:41;;;;;;;0.10;0.10;;;;;;;;;;4955883;28;20253;-89
2021/11/24 08:55:07;;;;;;;0.10;0.10;;;;;;;;;;4956593;28;20023;-89
2021/11/24 08:57:33;;;;;;;0.10;0.10;;;;;;;;;;4956425;28;20081;-88
2021/11/24 08:59:58;;;;;;;0.75;0.75;;;;;;;;;;4956588;28;20454;-87
2021/11/24 09:02:28;;;;;;;0.08;0.08;;;;;;;;;;4956762;29;20019;-88
2021/11/24 09:04:53;;;;;;;0.22;0.22;;;;;;;;;;4955662;28;20027;-87
2021/11/24 09:07:19;;;;;;;0.10;0.10;;;;;;;;;;4956331;28;20043;-89
2021/11/24 09:09:44;;;;;;;0.00;0.00;;;;;;;;;;4955984;28;20066;-88
2021/11/24 09:12:10;;;;;;;0.00;0.00;;;;;;;;;;4956047;28;20027;-88
2021/11/24 09:14:35;;;;;;;0.52;0.52;;;;;;;;;;4956003;28;20070;-86
2021/11/24 09:17:00;;;;;;;0.22;0.22;;;;;;;;;;4955538;29;20061;-88
2021/11/24 09:19:26;;;;;;;0.00;0.00;;;;;;;;;;4956130;28;20089;-88
2021/11/24 09:21:51;;;;;;;0.25;0.25;;;;;;;;;;4959288;28;20111;-88
2021/11/24 09:24:22;;;;;;;0.00;0.00;;;;;;;;;;4975268;28;20026;-88
2021/11/24 09:26:58;;;;;;;1.08;0.85;;;;;;;;;;4957942;28;20031;-89
2021/11/24 09:29:25;;;;;;;0.10;0.10;;;;;;;;;;4975001;28;20039;-88
2021/11/24 09:31:50;;;;;;;0.20;0.20;;;;;;;;;;4975244;28;20078;-88
2021/11/24 09:34:17;;;;;;;0.45;0.45;;;;;;;;;;4975472;28;20058;-88
2021/11/24 09:36:42;;;;;;;0.45;0.45;;;;;;;;;;4966450;28;20019;-87
2021/11/24 09:39:08;;;;;;;0.05;0.05;;;;;;;;;;4970806;28;20034;-88
2021/11/24 09:41:35;;;;;;;0.10;0.10;;;;;;;;;;4972225;28;20089;-88
2021/11/24 09:44:03;;;;;;;0.70;0.70;;;;;;;;;;4971870;28;20027;-89
2021/11/24 09:46:30;;;;;;;0.20;0.20;;;;;;;;;;4971604;28;20440;-88
2021/11/24 09:48:59;;;;;;;0.00;0.00;;;;;;;;;;4971763;28;20049;-86
2021/11/24 09:51:24;;;;;;;1.45;0.55;;;;;;;;;;4965013;28;20026;-89
2021/11/24 09:53:49;;;;;;;0.30;0.30;;;;;;;;;;4972178;28;20023;-88
2021/11/24 09:56:16;;;;;;;0.50;0.50;;;;;;;;;;4971434;28;20057;-89
2021/11/24 09:58:41;;;;;;;0.10;0.10;;;;;;;;;;4972789;28;20026;-89
2021/11/24 10:01:06;;;;;;;0.00;0.00;;;;;;;;;;4950260;28;20049;-87
2021/11/24 10:03:32;;;;;;;0.10;0.10;;;;;;;;;;4973477;28;20038;-89
2021/11/24 10:05:57;;;;;;;3.35;0.77;;;;;;;;;;4966505;28;20053;-88
2021/11/24 10:08:23;;;;;;;0.90;0.63;;;;;;;;;;4972410;28;20027;-89
2021/11/24 10:10:48;;;;;;;0.70;0.70;;;;;;;;;;4971467;28;20042;-88
2021/11/24 10:13:14;;;;;;;0.00;0.00;;;;;;;;;;4972515;28;20021;-89
2021/11/24 10:15:44;;;;;;;0.20;0.20;;;;;;;;;;4971954;28;20493;-88
2021/11/24 10:18:20;;;;;;;0.85;0.75;;;;;;;;;;4972196;28;20034;-84
2021/11/24 10:21:04;;;;;;;0.63;0.63;;;;;;;;;;4970317;28;20034;-89
2021/11/24 10:23:32;;;;;;;0.00;0.00;;;;;;;;;;4970228;28;20051;-89
2021/11/24 10:26:15;;;;;;;0.00;0.00;;;;;;;;;;4965736;28;20049;-89
2021/11/24 10:28:47;;;;;;;0.10;0.10;;;;;;;;;;4971545;28;20117;-85
2021/11/24 10:31:29;;;;;;;0.80;0.73;;;;;;;;;;4971885;28;20039;-88
2021/11/24 10:33:55;;;;;;;0.08;0.08;;;;;;;;;;4966277;28;20070;-85
2021/11/24 10:36:20;;;;;;;0.00;0.00;;;;;;;;;;4954917;28;20077;-89
2021/11/24 10:38:47;;;;;;;0.10;0.10;;;;;;;;;;4971775;28;20395;-88
2021/11/24 10:41:24;;;;;;;0.00;0.00;;;;;;;;;;4972043;28;20035;-89
2021/11/24 10:43:49;;;;;;;0.10;0.10;;;;;;;;;;4971509;28;20031;-88
2021/11/24 10:46:17;;;;;;;0.00;0.00;;;;;;;;;;4971788;28;20035;-89
2021/11/24 10:48:42;;;;;;;0.03;0.03;;;;;;;;;;4971671;28;20030;-89
2021/11/24 10:51:27;;;;;;;0.00;0.00;;;;;;;;;;4964521;28;20500;-89
2021/11/24 10:54:09;;;;;;;0.10;0.10;;;;;;;;;;4967456;28;20050;-88
2021/11/24 10:56:34;;;;;;;0.10;0.10;;;;;;;;;;4968730;28;20023;-87
2021/11/24 10:59:16;;;;;;;0.10;0.10;;;;;;;;;;4971719;28;20046;-87
2021/11/24 11:01:41;;;;;;;0.03;0.03;;;;;;;;;;4971220;28;20077;-87
2021/11/24 11:04:10;;;;;;;0.30;0.30;;;;;;;;;;4970934;28;20068;-89
2021/11/24 11:06:35;;;;;;;0.17;0.17;;;;;;;;;;4971165;28;20033;-90
2021/11/24 11:09:00;;;;;;;3.28;0.73;;;;;;;;;;4971127;28;20113;-89
2021/11/24 11:11:29;;;;;;;0.10;0.10;;;;;;;;;;4971474;28;20446;-88
2021/11/24 11:14:16;;;;;;;0.00;0.00;;;;;;;;;;4970377;28;20027;-89
2021/11/24 11:17:00;;;;;;;0.25;0.25;;;;;;;;;;4971326;28;20055;-87
2021/11/24 11:19:47;;;;;;;0.03;0.03;;;;;;;;;;4953881;28;20035;-89
2021/11/24 11:22:18;;;;;;;0.30;0.30;;;;;;;;;;4970550;28;20145;-88
2021/11/24 11:24:43;;;;;;;1.85;1.65;;;;;;;;;;4963344;28;20450;-86
2021/11/24 11:27:09;;;;;;;0.15;0.15;;;;;;;;;;4972145;28;20022;-88
2021/11/24 11:29:36;;;;;;;0.00;0.00;;;;;;;;;;4956906;28;20034;-89
2021/11/24 11:32:02;;;;;;;0.10;0.10;;;;;;;;;;4955746;28;20078;-89
2021/11/24 11:34:27;;;;;;;0.20;0.20;;;;;;;;;;4964663;28;20081;-89
2021/11/24 11:36:53;;;;;;;0.00;0.00;;;;;;;;;;4970047;28;20042;-87
2021/11/24 11:39:18;;;;;;;0.40;0.40;;;;;;;;;;4962717;28;20078;-88
2021/11/24 11:41:44;;;;;;;0.65;0.65;;;;;;;;;;4961685;28;20062;-88
2021/11/24 11:44:12;;;;;;;0.85;0.75;;;;;;;;;;4962972;28;20644;-89
2021/11/24 11:46:46;;;;;;;0.20;0.20;;;;;;;;;;4960190;28;20069;-85
2021/11/24 11:49:12;;;;;;;0.10;0.10;;;;;;;;;;4974349;28;20034;-88
2021/11/24 11:51:39;;;;;;;5.00;1.85;;;;;;;;;;4955082;28;20062;-89
2021/11/24 11:54:05;;;;;;;0.20;0.20;;;;;;;;;;4965077;28;20166;-88
2021/11/24 11:56:43;;;;;;;0.13;0.13;;;;;;;;;;4968454;28;20027;-88
2021/11/24 11:59:16;;;;;;;0.22;0.22;;;;;;;;;;4956680;28;20472;-88
2021/11/24 12:01:41;;;;;;;0.55;0.55;;;;;;;;;;4968158;28;20043;-88
2021/11/24 12:04:10;;;;;;;0.38;0.38;;;;;;;;;;4968470;28;20114;-89
2021/11/24 12:06:38;;;;;;;0.10;0.10;;;;;;;;;;4973696;28;20027;-88
2021/11/24 12:09:06;;;;;;;1.48;0.70;;;;;;;;;;4966113;28;20035;-89
2021/11/24 12:11:50;;;;;;;0.73;0.47;;;;;;;;;;4954872;28;20027;-88
2021/11/24 12:14:33;;;;;;;1.02;1.02;;;;;;;;;;4964998;28;20039;-88
2021/11/24 12:16:59;;;;;;;0.30;0.30;;;;;;;;;;4961350;28;20039;-89
2021/11/24 12:19:33;;;;;;;1.13;0.75;;;;;;;;;;4959493;28;20039;-88
2021/11/24 12:21:58;;;;;;;0.28;0.28;;;;;;;;;;4963028;28;20130;-88
2021/11/24 12:24:40;;;;;;;0.20;0.20;;;;;;;;;;4969587;28;20038;-89
2021/11/24 12:27:05;;;;;;;0.55;0.55;;;;;;;;;;4966909;28;20443;-88
2021/11/24 12:30:00;;;;;;;0.55;0.50;;;;;;;;;;4969256;28;20023;-88
2021/11/24 12:32:27;;;;;;;0.30;0.30;;;;;;;;;;4960169;28;20046;-88
2021/11/24 12:34:52;;;;;;;2.92;1.35;;;;;;;;;;4964721;28;20031;-87
2021/11/24 12:37:21;;;;;;;0.80;0.80;;;;;;;;;;4953034;28;20082;-87
2021/11/24 12:55:41;;;;;;;;;;;;;;;;;;5085200;27;20394;-84
2021/11/24 12:58:06;;;;;;;;;;;;;;;;;;5085404;28;19919;-87
2021/11/24 13:00:32;;;;;;;0.10;0.10;;;;;;;;;;5073918;28;20364;-86
2021/11/24 13:02:58;;;;;;;0.15;0.15;;;;;;;;;;5085148;28;20039;-87
2021/11/24 13:05:24;;;;;;;0.40;0.40;;;;;;;;;;5086155;28;20115;-86
2021/11/24 13:07:50;;;;;;;0.10;0.10;;;;;;;;;;5086460;28;20759;-86
2021/11/24 13:10:16;;;;;;;8.80;2.40;;;;;;;;;;5086327;28;20032;-87
2021/11/24 13:12:41;;;;;;;8.55;2.30;;;;;;;;;;5084588;28;20059;-87
2021/11/24 13:15:08;;;;;;;0.85;0.85;;;;;;;;;;5084253;28;20114;-85
2021/11/24 13:17:35;;;;;;;2.45;1.67;;;;;;;;;;5086227;28;20115;-87
2021/11/24 13:20:07;;;;;;;0.77;0.75;;;;;;;;;;5086945;28;20058;-87
2021/11/24 13:22:33;;;;;;;0.17;0.17;;;;;;;;;;5086724;28;20020;-87
2021/11/24 13:25:17;;;;;;;3.63;1.27;;;;;;;;;;5087085;28;20036;-87
2021/11/24 13:27:46;;;;;;;1.95;1.42;;;;;;;;;;5086165;28;20028;-87
2021/11/24 13:30:12;;;;;;;0.10;0.10;;;;;;;;;;5086892;28;20107;-87
2021/11/24 13:32:52;;;;;;;0.77;0.75;;;;;;;;;;5087032;28;20028;-87
2021/11/24 13:35:18;;;;;;;0.70;0.70;;;;;;;;;;5083907;28;20460;-87
2021/11/24 13:37:44;;;;;;;0.28;0.28;;;;;;;;;;5086609;28;20036;-86
2021/11/24 13:40:09;;;;;;;0.10;0.10;;;;;;;;;;5086766;28;20384;-87
2021/11/24 13:42:35;;;;;;;0.10;0.10;;;;;;;;;;5084372;28;20043;-87
2021/11/24 13:45:00;;;;;;;0.55;0.55;;;;;;;;;;5087060;28;20064;-86
2021/11/24 13:47:29;;;;;;;0.77;0.77;;;;;;;;;;5086618;28;20099;-87
2021/11/24 13:49:58;;;;;;;0.40;0.40;;;;;;;;;;5086301;28;20383;-87
2021/11/24 13:52:25;;;;;;;0.13;0.13;;;;;;;;;;5086841;28;20221;-86
2021/11/24 13:54:52;;;;;;;0.30;0.30;;;;;;;;;;5083438;28;20054;-87
2021/11/24 13:57:18;;;;;;;0.60;0.60;;;;;;;;;;5072807;28;20537;-87
2021/11/24 13:59:45;;;;;;;0.63;0.63;;;;;;;;;;5072709;28;20043;-88
2021/11/24 14:02:13;;;;;;;0.50;0.50;;;;;;;;;;5072895;28;20130;-84
2021/11/24 14:04:43;;;;;;;0.52;0.50;;;;;;;;;;5072897;28;20032;-86
2021/11/24 14:07:09;;;;;;;1.27;1.00;;;;;;;;;;5072854;28;20028;-86
2021/11/24 14:09:42;;;;;;;1.08;1.08;;;;;;;;;;5072879;28;20488;-87
2021/11/24 14:12:21;;;;;;;1.02;0.47;;;;;;;;;;5067568;28;20062;-87
2021/11/24 14:14:46;;;;;;;0.57;0.57;;;;;;;;;;5071713;28;20370;-87
2021/11/24 14:17:21;;;;;;;0.70;0.70;;;;;;;;;;5071201;28;20063;-84
2021/11/24 14:19:47;;;;;;;0.45;0.45;;;;;;;;;;5069756;28;20115;-88
2021/11/24 14:22:14;;;;;;;0.30;0.30;;;;;;;;;;5072987;28;20635;-87
2021/11/24 14:24:40;;;;;;;0.10;0.10;;;;;;;;;;5072740;28;20098;-87
2021/11/24 14:27:05;;;;;;;0.47;0.47;;;;;;;;;;5073026;28;20440;-86
2021/11/24 14:29:31;;;;;;;0.40;0.40;;;;;;;;;;5071514;28;20074;-85
2021/11/24 14:32:01;;;;;;;1.17;1.08;;;;;;;;;;5072770;28;20032;-87
2021/11/24 14:34:26;;;;;;;0.93;0.93;;;;;;;;;;5069281;28;20040;-88
2021/11/24 14:36:52;;;;;;;0.55;0.55;;;;;;;;;;5070862;28;20062;-87
2021/11/24 14:39:18;;;;;;;0.13;0.13;;;;;;;;;;5073202;28;20040;-86
2021/11/24 14:41:47;;;;;;;1.27;1.17;;;;;;;;;;5068993;28;20036;-88
2021/11/24 14:44:13;;;;;;;1.20;1.13;;;;;;;;;;5072706;28;20043;-86
2021/11/24 14:46:39;;;;;;;1.67;1.40;;;;;;;;;;5072950;28;20532;-86
2021/11/24 14:49:04;;;;;;;0.55;0.55;;;;;;;;;;5072405;28;20095;-88
2021/11/24 14:51:30;;;;;;;0.90;0.82;;;;;;;;;;5071323;28;20039;-88
2021/11/24 14:53:55;;;;;;;0.52;0.52;;;;;;;;;;5072308;28;20483;-87
2021/11/24 14:56:21;;;;;;;0.28;0.28;;;;;;;;;;5070517;28;20077;-88
2021/11/24 14:58:46;;;;;;;2.35;1.55;;;;;;;;;;5072401;28;20039;-88